Time;durP1;ratioP1;P1;durP2;ratioP2;P2;SDS_P1;SDS_P2;PMS_P1;PMS_P2;Temp;Humidity;BMP_temperature;BMP_pressure;BME280_temperature;BME280_humidity;BME280_pressure;Samples;Min_cycle;Max_cycle;Signal;HPM_P1;HPM_P2
2022/04/22 00:02:09;;;;;;;2.40;1.73;;;19.20;52.10;;;;;;5153412;27;20191;-69
2022/04/22 00:04:35;;;;;;;2.10;1.83;;;19.20;52.10;;;;;;5152685;27;20698;-69
2022/04/22 00:07:00;;;;;;;3.28;1.90;;;19.20;52.10;;;;;;5152599;27;20189;-69
2022/04/22 00:09:25;;;;;;;1.77;1.65;;;19.20;52.10;;;;;;5153296;27;20175;-70
2022/04/22 00:11:51;;;;;;;1.70;1.60;;;19.20;52.10;;;;;;5152793;27;20251;-72
2022/04/22 00:14:16;;;;;;;2.28;1.80;;;19.20;52.10;;;;;;5152459;27;20172;-70
2022/04/22 00:16:42;;;;;;;2.80;1.67;;;19.20;52.10;;;;;;5152989;27;20174;-71
2022/04/22 00:19:07;;;;;;;2.35;1.88;;;19.10;52.10;;;;;;5153041;27;20220;-71
2022/04/22 00:21:33;;;;;;;1.77;1.67;;;19.10;52.10;;;;;;5152418;27;20637;-70
2022/04/22 00:23:59;;;;;;;2.92;1.90;;;19.10;52.10;;;;;;5152648;27;20172;-72
2022/04/22 00:26:27;;;;;;;1.98;1.88;;;19.10;52.10;;;;;;5153090;27;20252;-70
2022/04/22 00:28:53;;;;;;;2.15;1.70;;;19.10;52.10;;;;;;5151408;27;20176;-72
2022/04/22 00:31:21;;;;;;;1.80;1.60;;;19.10;52.10;;;;;;5153139;27;20566;-69
2022/04/22 00:33:46;;;;;;;2.28;2.08;;;19.10;52.20;;;;;;5152766;27;20199;-69
2022/04/22 00:36:12;;;;;;;2.13;1.70;;;19.10;52.10;;;;;;5152211;27;20574;-70
2022/04/22 00:38:37;;;;;;;2.05;1.50;;;19.10;52.20;;;;;;5152593;27;20258;-70
2022/04/22 00:41:03;;;;;;;2.83;1.98;;;19.10;52.20;;;;;;5152846;27;20576;-71
2022/04/22 00:43:39;;;;;;;1.50;1.40;;;19.10;52.80;;;;;;5152217;27;20171;-70
2022/04/22 00:46:05;;;;;;;2.05;1.83;;;19.10;52.20;;;;;;5136165;27;20171;-70
2022/04/22 00:48:30;;;;;;;1.60;1.50;;;19.10;52.20;;;;;;5152951;27;20171;-71
2022/04/22 00:50:56;;;;;;;1.90;1.80;;;19.10;52.20;;;;;;5151793;27;20163;-71
2022/04/22 00:53:21;;;;;;;2.10;1.90;;;19.10;52.20;;;;;;5152736;27;20172;-71
2022/04/22 00:55:47;;;;;;;1.73;1.63;;;19.10;52.20;;;;;;5133086;27;20168;-71
2022/04/22 00:58:12;;;;;;;1.83;1.67;;;19.00;52.10;;;;;;5137622;27;20172;-72
2022/04/22 01:00:39;;;;;;;1.80;1.70;;;19.10;52.20;;;;;;5156534;27;20581;-71
2022/04/22 01:03:07;;;;;;;2.25;1.63;;;19.10;52.20;;;;;;5155809;27;20216;-70
2022/04/22 01:11:02;;;;;;;2.00;1.80;;;19.00;52.20;;;;;;5155922;27;20178;-72
2022/04/22 01:13:28;;;;;;;1.98;1.88;;;19.10;52.20;;;;;;5138321;27;20258;-73
2022/04/22 01:15:53;;;;;;;1.98;1.63;;;19.00;52.20;;;;;;5120747;27;20168;-72
2022/04/22 01:18:19;;;;;;;2.58;1.77;;;19.00;52.20;;;;;;5155681;27;20226;-72
2022/04/22 01:20:44;;;;;;;1.95;1.77;;;19.00;52.30;;;;;;5156237;27;20210;-71
2022/04/22 01:23:10;;;;;;;2.03;1.83;;;19.00;52.30;;;;;;5156522;27;20538;-72
2022/04/22 01:25:35;;;;;;;1.88;1.77;;;19.00;52.30;;;;;;5155240;27;20657;-72
2022/04/22 01:28:01;;;;;;;2.22;1.73;;;19.00;52.30;;;;;;5156561;27;20166;-72
2022/04/22 01:30:30;;;;;;;1.70;1.60;;;19.00;52.30;;;;;;5156321;27;20179;-72
2022/04/22 01:32:57;;;;;;;1.70;1.60;;;19.00;52.30;;;;;;5155293;27;20176;-71
2022/04/22 01:35:23;;;;;;;1.98;1.88;;;19.00;52.30;;;;;;5156366;27;20183;-70
2022/04/22 01:37:49;;;;;;;2.03;1.92;;;19.00;52.30;;;;;;5155914;27;20179;-71
2022/04/22 01:40:15;;;;;;;2.08;1.88;;;19.00;52.30;;;;;;5155668;27;20275;-70
2022/04/22 01:42:41;;;;;;;1.63;1.52;;;18.90;52.30;;;;;;5155898;27;20223;-72
2022/04/22 01:45:07;;;;;;;2.30;1.65;;;19.00;52.30;;;;;;5155450;27;20203;-72
2022/04/22 01:47:33;;;;;;;2.65;2.05;;;18.90;52.30;;;;;;5156185;27;20176;-71
2022/04/22 01:49:59;;;;;;;1.75;1.65;;;18.90;52.30;;;;;;5155968;27;20172;-72
2022/04/22 01:52:25;;;;;;;1.80;1.70;;;18.90;52.30;;;;;;5155564;27;20175;-71
2022/04/22 01:54:51;;;;;;;1.90;1.58;;;18.90;52.30;;;;;;5155644;27;20167;-72
2022/04/22 01:57:17;;;;;;;2.00;1.90;;;18.90;52.30;;;;;;5155838;27;20171;-72
2022/04/22 01:59:44;;;;;;;1.98;1.88;;;18.90;52.30;;;;;;5154867;27;20215;-70
2022/04/22 02:02:10;;;;;;;1.63;1.52;;;18.90;52.30;;;;;;5155785;27;20172;-70
2022/04/22 02:04:35;;;;;;;1.98;1.88;;;18.90;52.30;;;;;;5155284;27;20364;-69
2022/04/22 02:07:01;;;;;;;1.95;1.83;;;18.90;52.30;;;;;;5154906;27;20182;-71
2022/04/22 02:09:26;;;;;;;1.80;1.70;;;18.90;52.40;;;;;;5154992;27;20195;-70
2022/04/22 02:11:52;;;;;;;1.75;1.65;;;18.90;52.30;;;;;;5155265;27;20634;-71
2022/04/22 02:14:17;;;;;;;1.95;1.85;;;18.90;52.30;;;;;;5154897;27;20176;-72
2022/04/22 02:16:46;;;;;;;1.85;1.75;;;18.90;52.40;;;;;;5155194;27;20216;-71
2022/04/22 02:19:11;;;;;;;1.92;1.80;;;18.90;52.40;;;;;;5155716;27;20196;-71
2022/04/22 02:21:37;;;;;;;1.80;1.70;;;18.90;52.40;;;;;;5154584;27;20172;-71
2022/04/22 02:24:03;;;;;;;1.90;1.75;;;18.90;52.40;;;;;;5155498;27;20172;-71
2022/04/22 02:26:28;;;;;;;1.80;1.70;;;18.90;52.40;;;;;;5155353;27;20202;-72
2022/04/22 02:28:54;;;;;;;2.47;1.73;;;18.80;52.30;;;;;;5154308;27;20593;-71
2022/04/22 02:31:19;;;;;;;2.33;2.13;;;18.90;52.40;;;;;;5155181;27;20212;-71
2022/04/22 02:33:45;;;;;;;1.90;1.80;;;18.80;52.30;;;;;;5155238;27;20168;-69
2022/04/22 02:36:10;;;;;;;1.77;1.67;;;18.80;52.30;;;;;;5154584;27;20167;-70
2022/04/22 02:38:36;;;;;;;1.60;1.50;;;18.80;52.30;;;;;;5155101;27;20660;-71
2022/04/22 02:46:29;;;;;;;2.58;1.83;;;18.80;52.30;;;;;;5155049;27;20179;-70
2022/04/22 02:48:57;;;;;;;2.22;1.80;;;18.80;52.30;;;;;;5154146;27;20168;-70
2022/04/22 02:51:22;;;;;;;1.88;1.77;;;18.80;52.30;;;;;;5155124;27;20303;-71
2022/04/22 02:53:48;;;;;;;1.83;1.73;;;18.80;52.30;;;;;;5154478;27;20224;-71
2022/04/22 02:56:23;;;;;;;1.98;1.88;;;18.80;52.40;;;;;;5154066;27;20236;-72
2022/04/22 02:58:48;;;;;;;1.70;1.60;;;18.80;52.40;;;;;;5154537;27;20174;-71
2022/04/22 03:01:17;;;;;;;2.10;2.00;;;18.80;52.40;;;;;;5136300;27;20183;-70
2022/04/22 03:03:43;;;;;;;2.40;1.90;;;18.70;52.30;;;;;;5153571;27;20235;-71
2022/04/22 03:06:09;;;;;;;1.70;1.60;;;18.70;52.30;;;;;;5154651;27;20187;-69
2022/04/22 03:08:34;;;;;;;1.67;1.52;;;18.70;52.40;;;;;;5154372;27;20181;-70
2022/04/22 03:11:00;;;;;;;2.33;2.13;;;18.80;52.40;;;;;;5153714;27;20180;-71
2022/04/22 03:13:25;;;;;;;1.90;1.80;;;18.70;52.40;;;;;;5154572;27;20538;-71
2022/04/22 03:15:51;;;;;;;1.70;1.60;;;18.70;52.40;;;;;;5154327;27;20187;-72
2022/04/22 03:18:16;;;;;;;2.00;1.73;;;18.70;52.40;;;;;;5153594;27;20453;-71
2022/04/22 03:20:42;;;;;;;1.92;1.83;;;18.70;52.40;;;;;;5153909;27;20235;-72
2022/04/22 03:23:08;;;;;;;2.40;2.20;;;18.70;52.40;;;;;;5154270;27;20251;-71
2022/04/22 03:25:33;;;;;;;1.90;1.45;;;18.70;52.40;;;;;;5153274;27;20179;-71
2022/04/22 03:27:59;;;;;;;2.00;1.90;;;18.70;52.40;;;;;;5154017;27;20164;-71
2022/04/22 03:30:24;;;;;;;1.70;1.60;;;18.70;52.40;;;;;;5153468;27;20222;-70
2022/04/22 03:32:50;;;;;;;1.80;1.70;;;18.70;52.50;;;;;;5153877;27;20702;-70
2022/04/22 03:35:16;;;;;;;1.90;1.80;;;18.70;52.40;;;;;;5153547;27;20194;-71
2022/04/22 03:37:42;;;;;;;2.03;1.83;;;18.70;52.50;;;;;;5153044;27;20200;-70
2022/04/22 03:40:10;;;;;;;2.17;1.88;;;18.70;52.40;;;;;;5153854;27;20203;-71
2022/04/22 03:42:36;;;;;;;2.25;2.05;;;18.70;52.50;;;;;;5153448;27;20206;-70
2022/04/22 03:45:02;;;;;;;2.00;1.90;;;18.70;52.50;;;;;;5153320;27;20249;-72
2022/04/22 03:47:28;;;;;;;2.00;1.90;;;18.70;52.50;;;;;;5153867;27;20559;-70
2022/04/22 03:49:53;;;;;;;1.85;1.75;;;18.70;52.50;;;;;;5153634;27;20638;-70
2022/04/22 03:52:19;;;;;;;1.80;1.70;;;18.70;52.50;;;;;;5152983;27;20178;-71
2022/04/22 03:54:44;;;;;;;2.42;1.95;;;18.70;52.50;;;;;;5153463;27;20171;-71
2022/04/22 03:59:57;;;;;;;1.90;1.75;;;18.60;52.40;;;;;;5152686;27;20228;-70
2022/04/22 04:02:22;;;;;;;1.80;1.70;;;18.60;52.50;;;;;;5153629;27;20244;-71
2022/04/22 04:04:50;;;;;;;1.77;1.50;;;18.60;52.50;;;;;;5153158;27;20231;-72
2022/04/22 04:07:16;;;;;;;2.17;1.98;;;18.60;52.50;;;;;;5153149;27;20180;-70
2022/04/22 04:17:54;;;;;;;2.08;1.90;;;18.60;52.50;;;;;;5153208;27;20641;-72
2022/04/22 04:23:15;;;;;;;2.53;2.10;;;18.60;52.60;;;;;;5153698;27;20203;-73
2022/04/22 04:25:42;;;;;;;2.30;2.10;;;18.60;52.50;;;;;;5153033;27;20203;-74
2022/04/22 04:28:09;;;;;;;1.90;1.80;;;18.60;52.50;;;;;;5152659;27;20171;-69
2022/04/22 04:30:37;;;;;;;1.80;1.70;;;18.60;52.50;;;;;;5153300;27;20176;-71
2022/04/22 04:33:03;;;;;;;2.08;1.90;;;18.60;52.50;;;;;;5156840;27;20172;-71
2022/04/22 04:35:28;;;;;;;1.77;1.67;;;18.60;52.50;;;;;;5157148;27;20216;-70
2022/04/22 04:37:54;;;;;;;1.90;1.70;;;18.60;52.50;;;;;;5157393;27;20206;-71
2022/04/22 04:40:20;;;;;;;2.13;1.95;;;18.60;52.60;;;;;;5156413;27;20211;-72
2022/04/22 04:42:45;;;;;;;1.83;1.73;;;18.60;52.50;;;;;;5156809;27;20594;-71
2022/04/22 04:45:12;;;;;;;2.35;2.10;;;18.60;52.60;;;;;;5157546;27;20184;-71
2022/04/22 04:47:41;;;;;;;2.05;1.95;;;18.60;52.60;;;;;;5157285;27;20207;-70
2022/04/22 04:50:07;;;;;;;2.03;1.92;;;18.50;52.50;;;;;;5156917;27;20174;-71
2022/04/22 04:52:36;;;;;;;2.35;2.17;;;18.60;52.60;;;;;;5157406;27;20198;-72
2022/04/22 04:55:04;;;;;;;1.92;1.80;;;18.60;52.60;;;;;;5156595;27;20196;-72
2022/04/22 04:57:29;;;;;;;1.85;1.75;;;18.60;52.60;;;;;;5156989;27;20645;-73
2022/04/22 04:59:54;;;;;;;1.83;1.73;;;18.60;52.50;;;;;;5156979;27;20257;-70
2022/04/22 05:02:20;;;;;;;2.25;2.08;;;18.60;52.60;;;;;;5156584;27;20164;-71
2022/04/22 05:04:46;;;;;;;2.15;1.95;;;18.60;52.60;;;;;;5156607;27;20227;-72
2022/04/22 05:07:11;;;;;;;2.00;1.80;;;18.60;52.50;;;;;;5157039;27;20492;-71
2022/04/22 05:09:37;;;;;;;2.00;1.90;;;18.60;52.60;;;;;;5155941;27;20184;-70
2022/04/22 05:12:02;;;;;;;1.70;1.60;;;18.60;52.50;;;;;;5157208;27;20220;-72
2022/04/22 05:14:30;;;;;;;1.83;1.73;;;18.60;52.50;;;;;;5156892;27;20179;-71
2022/04/22 05:16:56;;;;;;;2.75;2.03;;;18.50;52.50;;;;;;5155563;27;20176;-72
2022/04/22 05:19:22;;;;;;;2.30;2.10;;;18.50;52.50;;;;;;5156478;27;20668;-71
2022/04/22 05:21:49;;;;;;;1.70;1.60;;;18.50;52.60;;;;;;5156371;27;20183;-72
2022/04/22 05:24:15;;;;;;;1.70;1.60;;;18.50;52.60;;;;;;5156124;27;20232;-72
2022/04/22 05:26:40;;;;;;;2.20;2.10;;;18.50;52.50;;;;;;5156629;27;20622;-72
2022/04/22 05:32:36;;;;;;;1.85;1.75;;;18.50;52.50;;;;;;5156877;27;20174;-72
2022/04/22 05:34:35;;;;;;;2.08;1.98;;;18.60;52.40;;;;;;5156442;27;20179;-70
2022/04/22 05:37:00;;;;;;;2.17;2.08;;;18.60;52.50;;;;;;5155706;27;20533;-70
2022/04/22 05:39:26;;;;;;;2.20;2.03;;;18.60;52.40;;;;;;5156585;27;20307;-70
2022/04/22 05:41:51;;;;;;;1.83;1.73;;;18.60;52.40;;;;;;5156241;27;20163;-71
2022/04/22 05:44:17;;;;;;;2.05;1.80;;;18.60;52.40;;;;;;5154426;27;20171;-70
2022/04/22 05:46:42;;;;;;;1.80;1.70;;;18.60;52.40;;;;;;5156161;27;20585;-71
2022/04/22 05:49:08;;;;;;;2.30;2.10;;;18.60;52.40;;;;;;5156143;27;20171;-72
2022/04/22 05:51:33;;;;;;;2.10;1.90;;;18.60;52.40;;;;;;5155334;27;20283;-70
2022/04/22 05:53:59;;;;;;;2.35;2.15;;;18.60;52.40;;;;;;5155874;27;20732;-72
2022/04/22 05:56:24;;;;;;;1.70;1.60;;;18.60;52.40;;;;;;5156098;27;20172;-71
2022/04/22 05:58:50;;;;;;;1.92;1.83;;;18.60;52.40;;;;;;5154955;27;20180;-72
2022/04/22 06:01:15;;;;;;;2.00;1.83;;;18.60;52.40;;;;;;5155828;27;20219;-71
2022/04/22 06:03:41;;;;;;;1.95;1.83;;;18.60;52.40;;;;;;5155311;27;20697;-69
2022/04/22 06:06:06;;;;;;;2.08;1.88;;;18.60;52.40;;;;;;5155333;27;20183;-70
2022/04/22 06:11:16;;;;;;;4.85;2.13;;;18.60;52.40;;;;;;5156065;27;20195;-73
2022/04/22 06:13:42;;;;;;;4.18;1.92;;;18.60;52.60;;;;;;5154495;27;20255;-73
2022/04/22 06:16:07;;;;;;;4.50;2.38;;;18.60;52.50;;;;;;5155520;27;20174;-73
2022/04/22 06:18:33;;;;;;;3.38;2.13;;;18.70;52.60;;;;;;5155454;27;20186;-74
2022/04/22 06:20:58;;;;;;;2.70;2.50;;;18.70;52.80;;;;;;5154380;27;20222;-74
2022/04/22 06:23:24;;;;;;;2.35;2.15;;;18.70;52.50;;;;;;5155388;27;20201;-74
2022/04/22 06:25:49;;;;;;;3.63;2.10;;;18.70;52.50;;;;;;5155270;27;20262;-75
2022/04/22 06:28:15;;;;;;;5.50;2.50;;;18.80;52.60;;;;;;5154632;27;20190;-74
2022/04/22 06:30:41;;;;;;;3.00;2.30;;;18.70;52.50;;;;;;5154844;27;20224;-76
2022/04/22 06:33:12;;;;;;;3.33;2.17;;;18.70;52.50;;;;;;5155206;27;20179;-74
2022/04/22 06:35:38;;;;;;;2.22;2.03;;;18.70;52.60;;;;;;5154433;27;20176;-74
2022/04/22 06:38:04;;;;;;;2.40;2.20;;;18.70;52.60;;;;;;5155223;27;20274;-74
2022/04/22 06:45:59;;;;;;;2.80;2.47;;;18.70;52.60;;;;;;5154866;27;20206;-71
2022/04/22 06:48:30;;;;;;;4.45;2.55;;;18.70;52.50;;;;;;5154375;27;20179;-71
2022/04/22 06:50:56;;;;;;;14.63;3.15;;;18.80;52.60;;;;;;5154823;27;20314;-72
2022/04/22 06:53:22;;;;;;;13.88;3.58;;;18.70;52.60;;;;;;5154959;27;20259;-74
2022/04/22 06:55:47;;;;;;;7.78;3.00;;;18.80;52.60;;;;;;5154004;27;20258;-72
2022/04/22 06:58:15;;;;;;;9.40;3.33;;;18.80;52.60;;;;;;5154987;27;20168;-72
2022/04/22 07:00:41;;;;;;;6.30;2.97;;;18.80;52.50;;;;;;5154572;27;20216;-74
2022/04/22 07:03:08;;;;;;;16.35;3.42;;;18.90;52.50;;;;;;5153983;27;20198;-73
2022/04/22 07:05:34;;;;;;;14.75;4.35;;;18.90;52.60;;;;;;5154939;27;20172;-75
2022/04/22 07:08:03;;;;;;;7.75;2.60;;;18.90;52.60;;;;;;5154338;27;20575;-74
2022/04/22 07:10:38;;;;;;;12.45;3.38;;;18.90;52.60;;;;;;5153606;27;20171;-74
2022/04/22 07:13:04;;;;;;;6.53;2.53;;;18.90;52.60;;;;;;5154840;27;20182;-74
2022/04/22 07:15:30;;;;;;;9.20;3.08;;;18.90;52.60;;;;;;5153818;27;20240;-74
2022/04/22 07:17:58;;;;;;;8.07;3.25;;;18.90;52.60;;;;;;5154106;27;20163;-74
2022/04/22 07:20:24;;;;;;;5.93;2.70;;;18.90;52.60;;;;;;5154084;27;20215;-74
2022/04/22 07:22:50;;;;;;;5.45;3.20;;;18.90;52.60;;;;;;5153112;27;20228;-74
2022/04/22 07:25:18;;;;;;;6.60;3.40;;;18.90;52.50;;;;;;5153882;27;20218;-74
2022/04/22 07:27:44;;;;;;;8.30;3.60;;;18.90;52.50;;;;;;5153882;27;20240;-74
2022/04/22 07:30:14;;;;;;;7.82;3.00;;;18.90;52.50;;;;;;5153492;27;20183;-74
2022/04/22 07:32:47;;;;;;;6.35;2.72;;;18.90;52.50;;;;;;5153630;27;20199;-75
2022/04/22 07:35:13;;;;;;;6.28;2.35;;;19.00;52.40;;;;;;5154017;27;20178;-74
2022/04/22 07:37:39;;;;;;;3.33;2.72;;;19.00;52.40;;;;;;5153040;27;20538;-74
2022/04/22 07:40:05;;;;;;;4.45;2.80;;;19.00;52.40;;;;;;5153935;27;20207;-74
2022/04/22 07:42:31;;;;;;;6.50;3.35;;;19.00;52.50;;;;;;5154095;27;20179;-75
2022/04/22 07:47:42;;;;;;;5.63;2.90;;;18.90;52.50;;;;;;5153483;27;20175;-76
2022/04/22 07:50:08;;;;;;;6.13;2.72;;;18.90;52.50;;;;;;5153636;27;20191;-75
2022/04/22 07:52:33;;;;;;;3.75;2.45;;;18.90;52.60;;;;;;5153055;27;20180;-74
2022/04/22 07:54:59;;;;;;;5.47;3.00;;;18.90;52.60;;;;;;5153803;27;20240;-74
2022/04/22 07:57:25;;;;;;;6.00;3.03;;;18.90;52.60;;;;;;5153554;27;20519;-74
2022/04/22 07:59:51;;;;;;;4.38;2.83;;;18.90;52.60;;;;;;5152314;27;20215;-74
2022/04/22 08:02:19;;;;;;;4.32;2.63;;;18.90;52.60;;;;;;5153630;27;20176;-75
2022/04/22 08:04:45;;;;;;;2.95;2.60;;;18.90;52.70;;;;;;5152104;27;20231;-74
2022/04/22 08:07:11;;;;;;;2.80;2.55;;;18.90;52.60;;;;;;5153040;27;20244;-75
2022/04/22 08:09:36;;;;;;;5.20;2.70;;;19.00;52.70;;;;;;5153266;27;20175;-75
2022/04/22 08:12:02;;;;;;;5.00;2.40;;;19.00;52.60;;;;;;5152840;27;20642;-74
2022/04/22 08:14:28;;;;;;;3.75;2.60;;;19.00;52.60;;;;;;5153535;27;20552;-75
2022/04/22 08:16:54;;;;;;;3.80;2.92;;;19.00;52.60;;;;;;5153151;27;20702;-75
2022/04/22 08:19:20;;;;;;;2.80;2.60;;;19.00;52.60;;;;;;5152672;27;20263;-75
2022/04/22 08:21:46;;;;;;;3.97;2.70;;;19.00;52.50;;;;;;5153024;27;20515;-74
2022/04/22 08:24:11;;;;;;;4.50;3.08;;;19.10;52.50;;;;;;5153228;27;20179;-75
2022/04/22 08:26:37;;;;;;;4.43;2.70;;;19.10;52.40;;;;;;5152174;27;20214;-74
2022/04/22 08:29:02;;;;;;;4.43;3.10;;;19.10;52.30;;;;;;5134737;27;20206;-74
2022/04/22 08:31:28;;;;;;;3.70;2.75;;;19.10;52.30;;;;;;5153091;27;20175;-74
2022/04/22 08:33:56;;;;;;;5.25;3.05;;;19.20;52.30;;;;;;5152316;27;20675;-73
2022/04/22 08:36:22;;;;;;;4.55;2.67;;;19.20;52.30;;;;;;5153281;27;20461;-74
2022/04/22 08:38:47;;;;;;;4.63;2.72;;;19.20;52.40;;;;;;5134624;27;20244;-74
2022/04/22 08:41:13;;;;;;;4.15;2.58;;;19.10;52.40;;;;;;5152389;27;20566;-74
2022/04/22 08:43:38;;;;;;;2.90;2.60;;;19.10;52.40;;;;;;5134222;27;20167;-75
2022/04/22 08:46:04;;;;;;;3.85;3.00;;;19.20;52.40;;;;;;5153056;27;20172;-74
2022/04/22 08:51:14;;;;;;;3.60;2.60;;;19.20;52.40;;;;;;5153281;27;20179;-74
2022/04/22 08:53:40;;;;;;;2.65;2.45;;;19.20;52.40;;;;;;5117307;27;20172;-74
2022/04/22 08:56:07;;;;;;;3.47;3.10;;;19.20;52.40;;;;;;5133908;27;20266;-74
2022/04/22 08:58:36;;;;;;;3.28;2.42;;;19.20;52.40;;;;;;5134916;27;20633;-74
2022/04/22 09:01:01;;;;;;;3.25;2.70;;;19.20;52.30;;;;;;5152197;27;20215;-73
2022/04/22 09:03:27;;;;;;;3.00;2.80;;;19.30;52.30;;;;;;5152777;27;20288;-73
2022/04/22 09:05:54;;;;;;;3.88;2.67;;;19.30;52.30;;;;;;5152932;27;20629;-74
2022/04/22 09:08:19;;;;;;;3.45;2.55;;;19.30;52.20;;;;;;5134010;27;20183;-75
2022/04/22 09:10:56;;;;;;;3.28;3.05;;;19.30;52.20;;;;;;5134263;27;20190;-74
2022/04/22 09:13:26;;;;;;;3.80;2.47;;;19.30;52.20;;;;;;5135453;27;20168;-74
2022/04/22 09:15:52;;;;;;;2.88;2.63;;;19.30;52.20;;;;;;5152048;27;20204;-74
2022/04/22 09:18:17;;;;;;;3.92;2.85;;;19.40;52.20;;;;;;5154656;27;20195;-74
2022/04/22 09:20:43;;;;;;;3.92;2.90;;;19.40;52.10;;;;;;5156483;27;20215;-74
2022/04/22 09:23:24;;;;;;;4.03;2.58;;;19.40;52.10;;;;;;5137329;27;20168;-73
2022/04/22 09:25:49;;;;;;;2.30;2.10;;;19.50;52.10;;;;;;5156321;27;20509;-74
2022/04/22 09:28:15;;;;;;;4.07;2.53;;;19.50;52.10;;;;;;5156605;27;20186;-74
2022/04/22 09:30:41;;;;;;;2.88;2.63;;;19.50;52.10;;;;;;5155704;27;20171;-74
2022/04/22 09:33:08;;;;;;;5.53;2.72;;;19.50;52.10;;;;;;5156740;27;20197;-73
2022/04/22 09:42:38;;;;;;;3.30;3.00;;;19.50;52.10;;;;;;5156631;27;20175;-74
2022/04/22 09:43:50;;;;;;;2.90;2.67;;;19.60;52.10;;;;;;5155292;27;20216;-74
2022/04/22 09:46:30;;;;;;;3.28;2.88;;;19.60;52.10;;;;;;5156017;27;20183;-73
2022/04/22 09:48:56;;;;;;;2.78;2.45;;;19.70;52.10;;;;;;5155932;27;20176;-74
2022/04/22 09:51:27;;;;;;;3.28;2.97;;;19.70;52.10;;;;;;5155709;27;20164;-73
2022/04/22 09:54:00;;;;;;;4.55;2.85;;;19.60;52.10;;;;;;5155830;27;20615;-73
2022/04/22 09:56:25;;;;;;;3.47;2.83;;;19.60;52.20;;;;;;5156143;27;20168;-73
2022/04/22 09:58:51;;;;;;;3.15;2.78;;;19.70;52.20;;;;;;5136557;27;20613;-73
2022/04/22 10:01:16;;;;;;;3.20;2.90;;;19.60;52.20;;;;;;5155827;27;20223;-72
2022/04/22 10:03:42;;;;;;;2.85;2.60;;;19.60;52.30;;;;;;5155390;27;20231;-72
2022/04/22 10:06:08;;;;;;;2.63;2.42;;;19.60;52.20;;;;;;5136828;27;20276;-73
2022/04/22 10:08:37;;;;;;;4.50;3.25;;;19.60;52.20;;;;;;5156103;27;20175;-74
2022/04/22 10:11:04;;;;;;;2.90;2.60;;;19.70;52.10;;;;;;5155923;27;20175;-73
2022/04/22 10:13:40;;;;;;;2.60;2.40;;;19.70;52.00;;;;;;5155375;27;20175;-74
2022/04/22 10:16:06;;;;;;;2.58;2.38;;;19.80;52.00;;;;;;5156448;27;20528;-74
2022/04/22 10:18:31;;;;;;;2.53;2.33;;;19.70;52.00;;;;;;5136557;27;20662;-73
2022/04/22 10:20:57;;;;;;;2.70;2.50;;;19.80;52.00;;;;;;5136952;27;20287;-74
2022/04/22 10:23:23;;;;;;;5.00;2.70;;;19.80;52.00;;;;;;5155876;27;20175;-73
2022/04/22 10:25:48;;;;;;;2.72;2.53;;;19.90;51.90;;;;;;5154701;27;20236;-74
2022/04/22 10:28:14;;;;;;;3.15;2.45;;;19.90;51.90;;;;;;5155566;27;20251;-75
2022/04/22 10:30:41;;;;;;;3.45;2.72;;;19.90;51.90;;;;;;5119239;27;20220;-76
2022/04/22 10:33:07;;;;;;;3.05;2.60;;;19.90;51.80;;;;;;5154905;27;20184;-74
2022/04/22 10:35:47;;;;;;;3.92;2.47;;;19.90;51.90;;;;;;5137263;27;20240;-72
2022/04/22 10:38:28;;;;;;;3.47;2.53;;;19.90;51.90;;;;;;5138389;27;20195;-73
2022/04/22 10:40:54;;;;;;;2.78;2.20;;;20.00;51.90;;;;;;5154113;27;20203;-73
2022/04/22 10:43:21;;;;;;;3.42;2.45;;;20.00;51.90;;;;;;5155417;27;20224;-73
2022/04/22 10:48:30;;;;;;;2.40;2.20;;;20.10;51.80;;;;;;5154614;27;20179;-75
2022/04/22 10:50:59;;;;;;;2.63;2.30;;;20.20;51.80;;;;;;5154781;27;20205;-72
2022/04/22 10:53:26;;;;;;;2.90;2.67;;;20.20;51.80;;;;;;5155032;27;20255;-73
2022/04/22 10:55:51;;;;;;;2.85;2.55;;;20.20;51.80;;;;;;5154153;27;20191;-73
2022/04/22 10:58:17;;;;;;;3.05;2.50;;;20.30;51.80;;;;;;5154996;27;20168;-75
2022/04/22 11:00:54;;;;;;;2.40;2.20;;;20.30;51.90;;;;;;5153781;27;20215;-74
2022/04/22 11:03:21;;;;;;;2.95;2.22;;;20.20;51.90;;;;;;5154778;27;20227;-74
2022/04/22 11:05:48;;;;;;;3.90;2.70;;;20.30;51.90;;;;;;5154522;27;20187;-74
2022/04/22 11:08:41;;;;;;;2.83;2.53;;;20.30;51.90;;;;;;5154249;27;20172;-73
2022/04/22 11:11:11;;;;;;;3.35;2.30;;;20.30;51.90;;;;;;5150573;27;20188;-74
2022/04/22 11:13:46;;;;;;;4.57;2.42;;;20.20;51.90;;;;;;5154341;27;20184;-76
2022/04/22 11:16:24;;;;;;;4.32;2.30;;;20.30;51.90;;;;;;5153647;27;20187;-75
2022/04/22 11:19:09;;;;;;;3.67;2.35;;;20.20;51.90;;;;;;5154338;27;20199;-75
2022/04/22 11:21:37;;;;;;;4.00;2.33;;;20.30;51.90;;;;;;5154246;27;20252;-75
2022/04/22 11:24:10;;;;;;;2.60;2.40;;;20.20;51.90;;;;;;5154043;27;20175;-75
2022/04/22 11:26:35;;;;;;;2.83;2.20;;;20.10;51.90;;;;;;5154041;27;20182;-74
2022/04/22 11:29:02;;;;;;;3.72;2.40;;;20.00;52.10;;;;;;5153534;27;20168;-73
2022/04/22 11:31:28;;;;;;;2.80;2.03;;;20.00;52.20;;;;;;5118660;27;20239;-71
2022/04/22 11:33:57;;;;;;;4.32;2.33;;;20.00;52.10;;;;;;5154008;27;20630;-68
2022/04/22 11:36:24;;;;;;;5.13;2.30;;;20.00;52.20;;;;;;5134909;27;20584;-69
2022/04/22 11:38:55;;;;;;;3.38;1.95;;;20.00;52.10;;;;;;5154032;27;20172;-70
2022/04/22 11:41:24;;;;;;;5.18;2.50;;;20.00;52.20;;;;;;5152991;27;20214;-68
2022/04/22 11:43:50;;;;;;;2.72;2.10;;;20.10;52.10;;;;;;5153442;27;20175;-66
2022/04/22 11:46:16;;;;;;;3.45;2.20;;;20.20;52.00;;;;;;5154133;27;20663;-67
2022/04/22 11:48:46;;;;;;;2.83;2.13;;;20.10;52.00;;;;;;5153687;27;20230;-67
2022/04/22 11:51:12;;;;;;;3.28;2.17;;;20.00;52.00;;;;;;5153374;27;20176;-69
2022/04/22 11:53:38;;;;;;;4.47;2.13;;;20.10;52.00;;;;;;5153858;27;20534;-68
2022/04/22 11:56:09;;;;;;;3.50;2.20;;;20.10;52.20;;;;;;5118653;27;20195;-70
2022/04/22 11:58:35;;;;;;;3.03;2.17;;;20.10;52.20;;;;;;5153026;27;20171;-67
2022/04/22 12:06:29;;;;;;;4.50;2.20;;;20.30;51.50;;;;;;5153835;27;20222;-71
2022/04/22 12:09:01;;;;;;;3.13;1.83;;;20.20;51.60;;;;;;5134659;27;20536;-71
2022/04/22 12:11:31;;;;;;;3.13;2.03;;;20.10;51.90;;;;;;5152928;27;20171;-72
2022/04/22 12:13:56;;;;;;;3.00;1.83;;;20.10;52.00;;;;;;5117528;27;20175;-74
2022/04/22 12:16:23;;;;;;;4.60;2.40;;;20.10;52.00;;;;;;5153623;27;20587;-70
2022/04/22 12:18:50;;;;;;;2.25;2.05;;;20.10;52.00;;;;;;5152343;27;20207;-71
2022/04/22 12:21:16;;;;;;;4.97;2.13;;;20.20;51.90;;;;;;5134659;27;20713;-70
2022/04/22 12:23:42;;;;;;;5.78;2.22;;;20.30;51.70;;;;;;5153166;27;20274;-69
2022/04/22 12:26:15;;;;;;;3.85;2.20;;;20.30;51.50;;;;;;5152777;27;20184;-70
2022/04/22 12:29:22;;;;;;;3.33;2.00;;;20.40;51.50;;;;;;5153037;27;20192;-68
2022/04/22 12:31:53;;;;;;;3.50;1.80;;;20.40;51.40;;;;;;5049028;28;20186;-68
2022/04/22 12:34:34;;;;;;;2.83;2.00;;;20.20;51.60;;;;;;5031834;28;20199;-69
2022/04/22 12:37:00;;;;;;;3.65;2.08;;;20.30;51.50;;;;;;5114418;27;20601;-70
2022/04/22 12:39:42;;;;;;;3.20;1.90;;;20.30;51.40;;;;;;5152585;27;20597;-75
2022/04/22 12:42:17;;;;;;;4.10;2.15;;;20.30;51.30;;;;;;5140569;27;20659;-75
2022/04/22 12:53:50;;;;;;;3.08;2.30;;;20.30;51.10;;;;;;5154501;27;20589;-76
2022/04/22 12:56:16;;;;;;;2.17;1.88;;;20.20;51.10;;;;;;5157175;27;20175;-75
2022/04/22 12:58:58;;;;;;;2.30;2.10;;;20.40;50.90;;;;;;5146068;27;20169;-74
2022/04/22 13:01:42;;;;;;;2.88;2.20;;;20.30;50.80;;;;;;5135969;27;20204;-74
2022/04/22 13:04:18;;;;;;;2.17;1.70;;;20.20;50.90;;;;;;5136402;27;20303;-73
2022/04/22 13:06:45;;;;;;;5.53;2.10;;;20.20;51.00;;;;;;5119415;27;20188;-74
2022/04/22 13:09:12;;;;;;;2.45;2.20;;;20.10;50.90;;;;;;5135567;27;20654;-74
2022/04/22 13:11:38;;;;;;;2.83;2.22;;;20.10;51.00;;;;;;5135878;27;20643;-74
2022/04/22 13:14:04;;;;;;;3.05;1.60;;;20.00;51.60;;;;;;5136476;27;20175;-74
2022/04/22 13:16:30;;;;;;;2.28;1.80;;;20.00;51.10;;;;;;5152991;27;20172;-74
2022/04/22 13:18:58;;;;;;;2.50;1.90;;;20.00;51.20;;;;;;5156626;27;20174;-72
2022/04/22 13:21:24;;;;;;;2.00;1.80;;;19.90;51.10;;;;;;5156003;27;20322;-74
2022/04/22 13:23:52;;;;;;;2.70;2.17;;;19.90;51.20;;;;;;5156633;27;20251;-74
2022/04/22 13:26:18;;;;;;;2.60;2.17;;;19.90;51.20;;;;;;5156900;27;20177;-75
2022/04/22 13:28:44;;;;;;;3.13;2.25;;;19.90;51.10;;;;;;5155820;27;20216;-75
2022/04/22 13:31:09;;;;;;;3.13;2.17;;;19.90;51.10;;;;;;5156749;27;20235;-73
2022/04/22 13:33:35;;;;;;;2.75;2.00;;;19.90;51.10;;;;;;5156025;27;20179;-72
2022/04/22 13:36:02;;;;;;;3.72;2.10;;;19.90;51.00;;;;;;5155884;27;20252;-72
2022/04/22 13:38:32;;;;;;;3.78;2.28;;;19.90;51.00;;;;;;5156586;27;20250;-72
2022/04/22 13:40:58;;;;;;;2.63;2.25;;;20.00;51.00;;;;;;5156318;27;20279;-71
2022/04/22 13:43:26;;;;;;;2.30;2.10;;;20.00;50.90;;;;;;5155689;27;20180;-74
2022/04/22 13:54:06;;;;;;;2.20;2.08;;;19.90;50.70;;;;;;5135518;27;20682;-73
2022/04/22 13:56:32;;;;;;;3.15;2.17;;;19.90;50.70;;;;;;5134720;27;20180;-72
2022/04/22 13:58:57;;;;;;;2.35;2.10;;;19.90;50.70;;;;;;5135111;27;20195;-71